Terminal Aerodrome Forecast
Issued by NWS

Home | Current Version | Previous Version | Text Only | Print | Product List | Glossary On
Versions: 1 2 3 4 5 6 7 8 9 10 11 12 13 14 15 16 17
000
FTUS44 KEPZ 011500 AAB
TAFDMN
TAF AMD
KDMN 011535Z 0116/0212 VRB03KT 3SM BR BKN005
      TEMPO 0116/0117 1/4SM FG OVC003
     FM011700 31005KT 5SM BR BKN010
     FM011900 34007KT P6SM SCT030 SCT250=

USA.gov is the U.S. government's official web portal to all federal, state and local government web resources and services.